KLM3CM EHAM-LEBL
Flight info
| Callsign | KLM3CM |
|---|---|
| Flight time | 2h 5m |
| Altitude | 38000 |
| Route | WOODY N872 MEDIL DCT KOVIN DCT DUCRA UM728 RESMI UN857 DISAK DCT DIRMO DCT VALKU DCT ATSUP DCT MINSO DCT DEGOL DCT PPG DCT ALBER |
| Aircraft | A20N/M-SDE2E3FGHIRWXY/LB1 |
Departure
| Time | 2026-04-28 15:41 |
|---|---|
| Airport | Amsterdam Airport Schiphol (EHAM) |
Arrival
| Time | 2026-04-28 17:46 |
|---|---|
| Airport | Josep Tarradellas Barcelona-El Prat Airport (LEBL) |
| Time | Latitude | Longitude | Altitude | Speed | Heading |
|---|---|---|---|---|---|
| 2026-04-28 15:18 | 52.31008 | 4.77180 | 2 ft | 0 kts | 183° |
| 2026-04-28 15:27 | 52.31039 | 4.77181 | 2 ft | 5 kts | 181° |
| 2026-04-28 15:27 | 52.31065 | 4.77184 | 2 ft | 2 kts | 201° |
| 2026-04-28 15:27 | 52.31074 | 4.77195 | 2 ft | 2 kts | 247° |
| 2026-04-28 15:27 | 52.31076 | 4.77212 | 2 ft | 2 kts | 267° |
| 2026-04-28 15:28 | 52.31076 | 4.77230 | 2 ft | 2 kts | 274° |
| 2026-04-28 15:28 | 52.31076 | 4.77234 | 2 ft | 0 kts | 274° |
| 2026-04-28 15:28 | 52.31076 | 4.77224 | 2 ft | 1 kts | 274° |
| 2026-04-28 15:29 | 52.31077 | 4.77214 | 2 ft | 1 kts | 274° |
| 2026-04-28 15:29 | 52.31077 | 4.77200 | 2 ft | 1 kts | 274° |
| 2026-04-28 15:29 | 52.31078 | 4.77186 | 2 ft | 0 kts | 274° |
| 2026-04-28 15:33 | 52.31079 | 4.77151 | 2 ft | 6 kts | 272° |
| 2026-04-28 15:33 | 52.31081 | 4.77057 | 2 ft | 11 kts | 274° |
| 2026-04-28 15:34 | 52.31097 | 4.76970 | 2 ft | 5 kts | 325° |
| 2026-04-28 15:34 | 52.31146 | 4.76945 | 2 ft | 10 kts | 4° |
| 2026-04-28 15:34 | 52.31217 | 4.77009 | 2 ft | 14 kts | 34° |
| 2026-04-28 15:34 | 52.31308 | 4.77111 | 2 ft | 17 kts | 34° |
| 2026-04-28 15:35 | 52.31401 | 4.77189 | 2 ft | 13 kts | 9° |
| 2026-04-28 15:35 | 52.31562 | 4.77148 | 2 ft | 12 kts | 296° |
| 2026-04-28 15:35 | 52.31565 | 4.77011 | 2 ft | 7 kts | 266° |
| 2026-04-28 15:36 | 52.31561 | 4.76911 | 2 ft | 11 kts | 266° |
| 2026-04-28 15:36 | 52.31556 | 4.76765 | 2 ft | 14 kts | 266° |
| 2026-04-28 15:36 | 52.31550 | 4.76600 | 2 ft | 16 kts | 266° |
| 2026-04-28 15:36 | 52.31544 | 4.76400 | 2 ft | 20 kts | 267° |
| 2026-04-28 15:37 | 52.31537 | 4.76179 | 2 ft | 18 kts | 267° |
| 2026-04-28 15:37 | 52.31529 | 4.75953 | 2 ft | 21 kts | 266° |
| 2026-04-28 15:37 | 52.31521 | 4.75715 | 2 ft | 22 kts | 266° |
| 2026-04-28 15:37 | 52.31514 | 4.75557 | 2 ft | 19 kts | 266° |
| 2026-04-28 15:38 | 52.31505 | 4.75252 | 2 ft | 22 kts | 267° |
| 2026-04-28 15:38 | 52.31498 | 4.75050 | 2 ft | 14 kts | 266° |
| 2026-04-28 15:38 | 52.31493 | 4.74888 | 2 ft | 9 kts | 267° |
| 2026-04-28 15:38 | 52.31492 | 4.74866 | 2 ft | 0 kts | 267° |
| 2026-04-28 15:39 | 52.31491 | 4.74845 | 2 ft | 4 kts | 267° |
| 2026-04-28 15:39 | 52.31489 | 4.74770 | 2 ft | 9 kts | 267° |
| 2026-04-28 15:39 | 52.31527 | 4.74667 | 2 ft | 15 kts | 342° |
| 2026-04-28 15:39 | 52.31636 | 4.74677 | 3 ft | 15 kts | 28° |
| 2026-04-28 15:40 | 52.31669 | 4.74798 | 2 ft | 0 kts | 89° |
| 2026-04-28 15:40 | 52.31674 | 4.75004 | 0 ft | 50 kts | 86° |
| 2026-04-28 15:40 | 52.31707 | 4.75959 | 1 ft | 118 kts | 88° |
| 2026-04-28 15:41 | 52.31769 | 4.77611 | 26 ft | 170 kts | 87° |
| 2026-04-28 15:41 | 52.31863 | 4.79544 | 640 ft | 167 kts | 85° |
| 2026-04-28 15:41 | 52.31954 | 4.81393 | 1470 ft | 163 kts | 86° |
| 2026-04-28 15:41 | 52.32040 | 4.83369 | 1849 ft | 187 kts | 86° |
| 2026-04-28 15:42 | 52.32135 | 4.85644 | 2129 ft | 212 kts | 86° |
| 2026-04-28 15:42 | 52.32234 | 4.88117 | 2551 ft | 224 kts | 88° |
| 2026-04-28 15:42 | 52.32039 | 4.90679 | 3057 ft | 231 kts | 108° |
| 2026-04-28 15:42 | 52.31210 | 4.92902 | 3640 ft | 232 kts | 137° |
| 2026-04-28 15:43 | 52.29772 | 4.94006 | 4285 ft | 232 kts | 173° |
| 2026-04-28 15:43 | 52.28136 | 4.93971 | 4771 ft | 239 kts | 186° |
| 2026-04-28 15:43 | 52.26473 | 4.93525 | 5264 ft | 245 kts | 192° |
| 2026-04-28 15:43 | 52.24757 | 4.92858 | 5876 ft | 263 kts | 195° |
| 2026-04-28 15:44 | 52.22985 | 4.92059 | 6684 ft | 271 kts | 196° |
| 2026-04-28 15:44 | 52.21164 | 4.91186 | 7660 ft | 275 kts | 197° |
| 2026-04-28 15:44 | 52.19318 | 4.90276 | 8650 ft | 279 kts | 197° |
| 2026-04-28 15:44 | 52.17450 | 4.89342 | 9600 ft | 283 kts | 197° |
| 2026-04-28 15:45 | 52.15550 | 4.88386 | 10431 ft | 292 kts | 197° |
| 2026-04-28 15:45 | 52.13533 | 4.87369 | 10813 ft | 316 kts | 197° |
| 2026-04-28 15:45 | 52.11365 | 4.86273 | 11304 ft | 334 kts | 197° |
| 2026-04-28 15:45 | 52.09117 | 4.85138 | 12072 ft | 342 kts | 197° |
| 2026-04-28 15:46 | 52.06826 | 4.83982 | 12831 ft | 347 kts | 197° |
| 2026-04-28 15:46 | 52.04510 | 4.82815 | 13670 ft | 351 kts | 197° |
| 2026-04-28 15:46 | 52.02191 | 4.81647 | 14477 ft | 355 kts | 197° |
| 2026-04-28 15:46 | 51.99826 | 4.80457 | 15272 ft | 359 kts | 197° |
| 2026-04-28 15:47 | 51.97417 | 4.79246 | 16051 ft | 364 kts | 197° |
| 2026-04-28 15:47 | 51.94986 | 4.78025 | 16801 ft | 368 kts | 197° |
| 2026-04-28 15:47 | 51.92585 | 4.76821 | 17501 ft | 372 kts | 199° |
| 2026-04-28 15:47 | 51.90209 | 4.75104 | 18208 ft | 376 kts | 205° |
| 2026-04-28 15:48 | 51.87843 | 4.73249 | 18882 ft | 380 kts | 206° |
| 2026-04-28 15:48 | 51.85461 | 4.71356 | 19545 ft | 384 kts | 206° |
| 2026-04-28 15:48 | 51.83045 | 4.69445 | 20189 ft | 388 kts | 206° |
| 2026-04-28 15:48 | 51.80609 | 4.67532 | 20797 ft | 392 kts | 206° |
| 2026-04-28 15:49 | 51.78176 | 4.65630 | 21397 ft | 395 kts | 206° |
| 2026-04-28 15:49 | 51.75688 | 4.63691 | 21978 ft | 399 kts | 206° |
| 2026-04-28 15:49 | 51.73181 | 4.61741 | 22544 ft | 402 kts | 206° |
| 2026-04-28 15:49 | 51.70643 | 4.59772 | 23103 ft | 406 kts | 206° |
| 2026-04-28 15:50 | 51.68086 | 4.57790 | 23645 ft | 409 kts | 206° |
| 2026-04-28 15:50 | 51.65510 | 4.55797 | 24170 ft | 413 kts | 206° |
| 2026-04-28 15:50 | 51.62908 | 4.53789 | 24672 ft | 416 kts | 206° |
| 2026-04-28 15:50 | 51.60286 | 4.51769 | 25158 ft | 419 kts | 206° |
| 2026-04-28 15:51 | 51.57682 | 4.49764 | 25615 ft | 422 kts | 206° |
| 2026-04-28 15:51 | 51.55028 | 4.47724 | 26061 ft | 425 kts | 206° |
| 2026-04-28 15:51 | 51.52342 | 4.45662 | 26495 ft | 428 kts | 206° |
| 2026-04-28 15:51 | 51.49647 | 4.43595 | 26907 ft | 431 kts | 205° |
| 2026-04-28 15:52 | 51.46932 | 4.41517 | 27299 ft | 434 kts | 205° |
| 2026-04-28 15:52 | 51.44197 | 4.39426 | 27680 ft | 436 kts | 205° |
| 2026-04-28 15:52 | 51.41451 | 4.37328 | 28043 ft | 439 kts | 205° |
| 2026-04-28 15:52 | 51.38685 | 4.35219 | 28395 ft | 442 kts | 205° |
| 2026-04-28 15:53 | 51.35900 | 4.33100 | 28737 ft | 444 kts | 205° |
| 2026-04-28 15:53 | 51.33141 | 4.31003 | 29077 ft | 446 kts | 205° |
| 2026-04-28 15:53 | 51.30326 | 4.28867 | 29404 ft | 449 kts | 205° |
| 2026-04-28 15:53 | 51.27500 | 4.26722 | 29729 ft | 451 kts | 205° |
| 2026-04-28 15:54 | 51.24659 | 4.24567 | 30048 ft | 453 kts | 205° |
| 2026-04-28 15:54 | 51.21806 | 4.22405 | 30361 ft | 456 kts | 205° |
| 2026-04-28 15:54 | 51.18939 | 4.20236 | 30688 ft | 457 kts | 205° |
| 2026-04-28 15:54 | 51.16042 | 4.18154 | 31116 ft | 456 kts | 202° |
| 2026-04-28 15:55 | 51.13084 | 4.16323 | 31545 ft | 455 kts | 200° |
| 2026-04-28 15:55 | 51.10146 | 4.14677 | 31946 ft | 454 kts | 199° |
| 2026-04-28 15:55 | 51.07156 | 4.13081 | 32327 ft | 453 kts | 198° |
| 2026-04-28 15:55 | 51.04172 | 4.11510 | 32694 ft | 452 kts | 198° |
| 2026-04-28 15:56 | 51.01183 | 4.09932 | 33051 ft | 452 kts | 199° |
| 2026-04-28 15:56 | 50.98208 | 4.08345 | 33391 ft | 451 kts | 199° |
| 2026-04-28 15:56 | 50.95233 | 4.06743 | 33735 ft | 451 kts | 199° |
| 2026-04-28 15:56 | 50.92278 | 4.05143 | 34061 ft | 450 kts | 199° |
| 2026-04-28 15:57 | 50.89313 | 4.03532 | 34380 ft | 449 kts | 199° |
| 2026-04-28 15:57 | 50.86410 | 4.01872 | 34683 ft | 449 kts | 201° |
| 2026-04-28 15:57 | 50.83507 | 4.00072 | 34978 ft | 448 kts | 202° |
| 2026-04-28 15:57 | 50.80621 | 3.98212 | 35277 ft | 448 kts | 202° |
| 2026-04-28 15:58 | 50.77743 | 3.96332 | 35547 ft | 447 kts | 202° |
| 2026-04-28 15:58 | 50.74872 | 3.94457 | 35819 ft | 447 kts | 202° |
| 2026-04-28 15:58 | 50.72002 | 3.92596 | 36080 ft | 446 kts | 202° |
| 2026-04-28 15:58 | 50.69123 | 3.90743 | 36336 ft | 446 kts | 202° |
| 2026-04-28 15:59 | 50.66248 | 3.88903 | 36551 ft | 446 kts | 202° |
| 2026-04-28 15:59 | 50.64341 | 3.87688 | 36707 ft | 446 kts | 202° |
| 2026-04-28 15:59 | 50.60492 | 3.85243 | 36996 ft | 446 kts | 202° |
| 2026-04-28 15:59 | 50.57652 | 3.83438 | 37205 ft | 446 kts | 202° |
| 2026-04-28 16:00 | 50.54792 | 3.81556 | 37412 ft | 446 kts | 203° |
| 2026-04-28 16:00 | 50.51935 | 3.79620 | 37614 ft | 446 kts | 204° |
| 2026-04-28 16:00 | 50.49091 | 3.77668 | 37807 ft | 446 kts | 204° |
| 2026-04-28 16:00 | 50.46244 | 3.75709 | 37995 ft | 446 kts | 204° |
| 2026-04-28 16:01 | 50.43407 | 3.73761 | 38176 ft | 446 kts | 204° |
| 2026-04-28 16:01 | 50.40560 | 3.71813 | 38354 ft | 446 kts | 204° |
| 2026-04-28 16:01 | 50.37748 | 3.69897 | 38528 ft | 446 kts | 204° |
| 2026-04-28 16:01 | 50.34899 | 3.67962 | 38695 ft | 446 kts | 204° |
| 2026-04-28 16:02 | 50.32048 | 3.66030 | 38859 ft | 446 kts | 203° |
| 2026-04-28 16:02 | 50.29198 | 3.64105 | 38980 ft | 447 kts | 203° |
| 2026-04-28 16:02 | 50.23487 | 3.60255 | 38996 ft | 446 kts | 203° |
| 2026-04-28 16:03 | 50.17836 | 3.56454 | 38997 ft | 445 kts | 203° |
| 2026-04-28 16:03 | 50.12142 | 3.52632 | 39000 ft | 445 kts | 203° |
| 2026-04-28 16:04 | 50.06453 | 3.48824 | 38998 ft | 445 kts | 203° |
| 2026-04-28 16:04 | 50.00756 | 3.45021 | 39004 ft | 445 kts | 203° |
| 2026-04-28 16:05 | 49.95062 | 3.41230 | 38999 ft | 445 kts | 203° |
| 2026-04-28 16:05 | 49.89401 | 3.37470 | 38996 ft | 445 kts | 203° |
| 2026-04-28 16:06 | 49.83705 | 3.33697 | 38995 ft | 445 kts | 203° |
| 2026-04-28 16:06 | 49.78007 | 3.29932 | 39004 ft | 445 kts | 203° |
| 2026-04-28 16:07 | 49.72310 | 3.26177 | 39002 ft | 445 kts | 203° |
| 2026-04-28 16:08 | 49.63793 | 3.20581 | 39006 ft | 445 kts | 203° |
| 2026-04-28 16:08 | 49.58087 | 3.16844 | 39000 ft | 445 kts | 203° |
| 2026-04-28 16:09 | 49.49537 | 3.11240 | 39004 ft | 445 kts | 205° |
| 2026-04-28 16:10 | 49.41626 | 3.03922 | 38997 ft | 445 kts | 214° |
| 2026-04-28 16:10 | 49.33965 | 2.95859 | 38997 ft | 445 kts | 214° |
| 2026-04-28 16:11 | 49.23649 | 2.85362 | 39006 ft | 445 kts | 213° |
| 2026-04-28 16:12 | 49.15917 | 2.77602 | 39001 ft | 445 kts | 213° |
| 2026-04-28 16:13 | 49.08146 | 2.69824 | 38997 ft | 445 kts | 213° |
| 2026-04-28 16:14 | 48.97818 | 2.59528 | 39007 ft | 445 kts | 213° |
| 2026-04-28 16:15 | 48.87439 | 2.49232 | 39005 ft | 445 kts | 213° |
| 2026-04-28 16:15 | 48.82600 | 2.44449 | 39003 ft | 445 kts | 213° |
| 2026-04-28 16:16 | 48.74845 | 2.36809 | 39000 ft | 445 kts | 213° |
| 2026-04-28 16:17 | 48.67050 | 2.29158 | 38997 ft | 445 kts | 213° |
| 2026-04-28 16:17 | 48.61849 | 2.24068 | 39004 ft | 445 kts | 213° |
| 2026-04-28 16:18 | 48.56612 | 2.19211 | 38992 ft | 445 kts | 203° |
| 2026-04-28 16:18 | 48.50694 | 2.16567 | 39006 ft | 444 kts | 191° |
| 2026-04-28 16:19 | 48.44605 | 2.14900 | 38997 ft | 445 kts | 190° |
| 2026-04-28 16:19 | 48.38511 | 2.13203 | 38999 ft | 446 kts | 191° |
| 2026-04-28 16:20 | 48.32467 | 2.11347 | 39005 ft | 446 kts | 192° |
| 2026-04-28 16:20 | 48.26345 | 2.10114 | 38996 ft | 445 kts | 178° |
| 2026-04-28 16:21 | 48.20198 | 2.11167 | 39003 ft | 446 kts | 171° |
| 2026-04-28 16:21 | 48.14087 | 2.12760 | 39000 ft | 446 kts | 172° |
| 2026-04-28 16:22 | 48.07910 | 2.13639 | 38997 ft | 446 kts | 177° |
| 2026-04-28 16:22 | 48.01746 | 2.13985 | 38994 ft | 446 kts | 179° |
| 2026-04-28 16:23 | 47.95553 | 2.14258 | 39004 ft | 446 kts | 178° |
| 2026-04-28 16:23 | 47.89344 | 2.14579 | 39004 ft | 446 kts | 178° |
| 2026-04-28 16:24 | 47.83146 | 2.14934 | 39000 ft | 446 kts | 178° |
| 2026-04-28 16:24 | 47.76982 | 2.15298 | 39003 ft | 446 kts | 178° |
| 2026-04-28 16:25 | 47.70778 | 2.15662 | 38995 ft | 446 kts | 178° |
| 2026-04-28 16:25 | 47.64580 | 2.16023 | 38995 ft | 446 kts | 178° |
| 2026-04-28 16:26 | 47.58380 | 2.16382 | 38997 ft | 446 kts | 178° |
| 2026-04-28 16:26 | 47.52179 | 2.16741 | 38998 ft | 446 kts | 178° |
| 2026-04-28 16:27 | 47.46022 | 2.17096 | 39002 ft | 446 kts | 178° |
| 2026-04-28 16:28 | 47.36718 | 2.17632 | 39004 ft | 446 kts | 178° |
| 2026-04-28 16:28 | 47.30548 | 2.17986 | 39003 ft | 446 kts | 178° |
| 2026-04-28 16:29 | 47.21242 | 2.18519 | 39004 ft | 446 kts | 178° |
| 2026-04-28 16:30 | 47.11940 | 2.19049 | 38994 ft | 446 kts | 178° |
| 2026-04-28 16:30 | 47.05889 | 2.20500 | 39003 ft | 445 kts | 162° |
| 2026-04-28 16:31 | 47.00126 | 2.23850 | 38999 ft | 446 kts | 156° |
| 2026-04-28 16:31 | 46.94430 | 2.27506 | 39005 ft | 447 kts | 157° |
| 2026-04-28 16:32 | 46.88697 | 2.31014 | 39003 ft | 447 kts | 158° |
| 2026-04-28 16:32 | 46.80080 | 2.36045 | 38997 ft | 447 kts | 159° |
| 2026-04-28 16:33 | 46.75237 | 2.38837 | 38999 ft | 447 kts | 159° |
| 2026-04-28 16:33 | 46.68517 | 2.42710 | 39004 ft | 447 kts | 159° |
| 2026-04-28 16:34 | 46.62735 | 2.46039 | 38996 ft | 447 kts | 159° |
| 2026-04-28 16:34 | 46.56953 | 2.49363 | 38999 ft | 447 kts | 159° |
| 2026-04-28 16:35 | 46.51214 | 2.52655 | 39001 ft | 447 kts | 159° |
| 2026-04-28 16:35 | 46.45430 | 2.55965 | 38997 ft | 447 kts | 159° |
| 2026-04-28 16:36 | 46.39643 | 2.59268 | 38996 ft | 447 kts | 159° |
| 2026-04-28 16:36 | 46.33858 | 2.62563 | 39000 ft | 447 kts | 159° |
| 2026-04-28 16:37 | 46.28117 | 2.65825 | 39000 ft | 447 kts | 159° |
| 2026-04-28 16:38 | 46.19433 | 2.70746 | 39005 ft | 447 kts | 159° |
| 2026-04-28 16:38 | 46.13691 | 2.73991 | 39007 ft | 447 kts | 159° |
| 2026-04-28 16:39 | 46.07855 | 2.77281 | 39001 ft | 447 kts | 159° |
| 2026-04-28 16:39 | 46.02114 | 2.80511 | 38996 ft | 447 kts | 159° |
| 2026-04-28 16:40 | 45.96299 | 2.83702 | 38998 ft | 447 kts | 160° |
| 2026-04-28 16:40 | 45.90468 | 2.86777 | 38998 ft | 447 kts | 160° |
| 2026-04-28 16:41 | 45.84623 | 2.89836 | 38994 ft | 447 kts | 160° |
| 2026-04-28 16:41 | 45.78829 | 2.92874 | 39001 ft | 447 kts | 160° |
| 2026-04-28 16:42 | 45.72900 | 2.95437 | 39004 ft | 445 kts | 173° |
| 2026-04-28 16:42 | 45.66720 | 2.95641 | 39004 ft | 445 kts | 182° |
| 2026-04-28 16:43 | 45.60538 | 2.95159 | 38997 ft | 446 kts | 183° |
| 2026-04-28 16:43 | 45.54376 | 2.94778 | 39004 ft | 446 kts | 182° |
| 2026-04-28 16:44 | 45.48170 | 2.94554 | 39003 ft | 446 kts | 181° |
| 2026-04-28 16:44 | 45.41979 | 2.94395 | 38997 ft | 446 kts | 181° |
| 2026-04-28 16:45 | 45.35765 | 2.94244 | 39003 ft | 446 kts | 181° |
| 2026-04-28 16:45 | 45.29560 | 2.94086 | 39000 ft | 446 kts | 181° |
| 2026-04-28 16:46 | 45.23398 | 2.93925 | 39003 ft | 446 kts | 181° |
| 2026-04-28 16:46 | 45.17202 | 2.93763 | 38994 ft | 446 kts | 181° |
| 2026-04-28 16:47 | 45.10994 | 2.93600 | 38999 ft | 446 kts | 181° |
| 2026-04-28 16:47 | 45.04791 | 2.93439 | 39003 ft | 446 kts | 181° |
| 2026-04-28 16:48 | 44.98636 | 2.93279 | 38999 ft | 446 kts | 181° |
| 2026-04-28 16:48 | 44.92431 | 2.93118 | 38994 ft | 446 kts | 181° |
| 2026-04-28 16:49 | 44.86225 | 2.92957 | 39003 ft | 446 kts | 181° |
| 2026-04-28 16:49 | 44.80029 | 2.92637 | 39059 ft | 446 kts | 183° |
| 2026-04-28 16:50 | 44.73869 | 2.92163 | 39060 ft | 446 kts | 183° |
| 2026-04-28 16:50 | 44.67677 | 2.91677 | 39060 ft | 446 kts | 183° |
| 2026-04-28 16:51 | 44.61486 | 2.91212 | 39060 ft | 446 kts | 183° |
| 2026-04-28 16:51 | 44.55288 | 2.90759 | 39061 ft | 446 kts | 183° |
| 2026-04-28 16:52 | 44.49134 | 2.90314 | 39060 ft | 446 kts | 183° |
| 2026-04-28 16:52 | 44.42939 | 2.89866 | 39061 ft | 446 kts | 183° |
| 2026-04-28 16:53 | 44.36741 | 2.89418 | 39061 ft | 446 kts | 183° |
| 2026-04-28 16:53 | 44.30545 | 2.88970 | 39061 ft | 446 kts | 183° |
| 2026-04-28 16:54 | 44.24391 | 2.88527 | 39061 ft | 446 kts | 183° |
| 2026-04-28 16:54 | 44.18202 | 2.88082 | 39060 ft | 446 kts | 183° |
| 2026-04-28 16:55 | 44.12008 | 2.87638 | 39060 ft | 446 kts | 183° |
| 2026-04-28 16:55 | 44.05811 | 2.87194 | 39061 ft | 446 kts | 183° |
| 2026-04-28 16:56 | 43.99615 | 2.86752 | 39061 ft | 446 kts | 183° |
| 2026-04-28 16:56 | 43.93462 | 2.86313 | 39061 ft | 446 kts | 183° |
| 2026-04-28 16:57 | 43.87266 | 2.85872 | 39061 ft | 446 kts | 183° |
| 2026-04-28 16:57 | 43.81075 | 2.85433 | 39061 ft | 446 kts | 183° |
| 2026-04-28 16:58 | 43.74912 | 2.85161 | 39061 ft | 446 kts | 180° |
| 2026-04-28 16:58 | 43.68713 | 2.85255 | 39061 ft | 446 kts | 179° |
| 2026-04-28 16:59 | 43.62503 | 2.85413 | 39062 ft | 446 kts | 179° |
| 2026-04-28 16:59 | 43.56300 | 2.85537 | 39061 ft | 446 kts | 179° |
| 2026-04-28 17:00 | 43.50145 | 2.85633 | 39052 ft | 440 kts | 179° |
| 2026-04-28 17:00 | 43.47095 | 2.85677 | 39028 ft | 426 kts | 180° |
| 2026-04-28 17:00 | 43.44218 | 2.85719 | 38973 ft | 413 kts | 180° |
| 2026-04-28 17:00 | 43.41373 | 2.85759 | 38741 ft | 405 kts | 180° |
| 2026-04-28 17:01 | 43.38579 | 2.85799 | 38446 ft | 399 kts | 180° |
| 2026-04-28 17:01 | 43.35830 | 2.85839 | 38124 ft | 393 kts | 180° |
| 2026-04-28 17:01 | 43.33111 | 2.85878 | 37793 ft | 388 kts | 180° |
| 2026-04-28 17:01 | 43.30426 | 2.85917 | 37457 ft | 383 kts | 180° |
| 2026-04-28 17:02 | 43.27773 | 2.85955 | 37124 ft | 379 kts | 180° |
| 2026-04-28 17:02 | 43.26039 | 2.85980 | 36893 ft | 376 kts | 180° |
| 2026-04-28 17:02 | 43.22597 | 2.86030 | 36436 ft | 371 kts | 180° |
| 2026-04-28 17:02 | 43.20033 | 2.86067 | 36092 ft | 367 kts | 180° |
| 2026-04-28 17:03 | 43.14984 | 2.86140 | 35395 ft | 359 kts | 180° |
| 2026-04-28 17:03 | 43.12490 | 2.86176 | 35041 ft | 356 kts | 180° |
| 2026-04-28 17:03 | 43.10026 | 2.86212 | 34686 ft | 353 kts | 180° |
| 2026-04-28 17:04 | 43.05189 | 2.86282 | 33983 ft | 347 kts | 180° |
| 2026-04-28 17:04 | 43.02796 | 2.86316 | 33631 ft | 344 kts | 180° |
| 2026-04-28 17:05 | 42.98049 | 2.86384 | 32932 ft | 338 kts | 180° |
| 2026-04-28 17:05 | 42.95708 | 2.86418 | 32586 ft | 335 kts | 180° |
| 2026-04-28 17:05 | 42.93387 | 2.86451 | 32240 ft | 332 kts | 180° |
| 2026-04-28 17:06 | 42.88801 | 2.86517 | 31550 ft | 327 kts | 180° |
| 2026-04-28 17:06 | 42.86535 | 2.86550 | 31210 ft | 324 kts | 180° |
| 2026-04-28 17:06 | 42.82092 | 2.86613 | 30539 ft | 319 kts | 180° |
| 2026-04-28 17:07 | 42.79881 | 2.86645 | 30174 ft | 317 kts | 180° |
| 2026-04-28 17:07 | 42.77653 | 2.86676 | 29561 ft | 324 kts | 180° |
| 2026-04-28 17:07 | 42.75379 | 2.86673 | 28999 ft | 329 kts | 182° |
| 2026-04-28 17:07 | 42.73087 | 2.86524 | 28585 ft | 329 kts | 184° |
| 2026-04-28 17:08 | 42.70813 | 2.86293 | 28231 ft | 327 kts | 185° |
| 2026-04-28 17:08 | 42.68560 | 2.86023 | 27889 ft | 324 kts | 185° |
| 2026-04-28 17:08 | 42.66321 | 2.85740 | 27549 ft | 322 kts | 186° |
| 2026-04-28 17:08 | 42.64099 | 2.85458 | 27209 ft | 320 kts | 185° |
| 2026-04-28 17:09 | 42.61921 | 2.85186 | 26877 ft | 317 kts | 185° |
| 2026-04-28 17:09 | 42.59729 | 2.84919 | 26544 ft | 315 kts | 185° |
| 2026-04-28 17:09 | 42.57554 | 2.84660 | 26209 ft | 313 kts | 185° |
| 2026-04-28 17:09 | 42.55394 | 2.84405 | 25877 ft | 311 kts | 185° |
| 2026-04-28 17:10 | 42.53246 | 2.84154 | 25555 ft | 308 kts | 185° |
| 2026-04-28 17:10 | 42.51117 | 2.83906 | 25219 ft | 306 kts | 185° |
| 2026-04-28 17:10 | 42.49004 | 2.83660 | 24896 ft | 304 kts | 185° |
| 2026-04-28 17:10 | 42.46901 | 2.83415 | 24566 ft | 302 kts | 185° |
| 2026-04-28 17:11 | 42.44858 | 2.82877 | 24199 ft | 299 kts | 203° |
| 2026-04-28 17:11 | 42.42988 | 2.81742 | 23876 ft | 297 kts | 205° |
| 2026-04-28 17:11 | 42.41127 | 2.80545 | 23553 ft | 295 kts | 206° |
| 2026-04-28 17:11 | 42.39292 | 2.79328 | 23225 ft | 293 kts | 206° |
| 2026-04-28 17:12 | 42.37469 | 2.78113 | 22906 ft | 291 kts | 206° |
| 2026-04-28 17:12 | 42.35661 | 2.76909 | 22585 ft | 289 kts | 206° |
| 2026-04-28 17:12 | 42.33862 | 2.75712 | 22262 ft | 287 kts | 206° |
| 2026-04-28 17:12 | 42.32077 | 2.74527 | 21940 ft | 285 kts | 206° |
| 2026-04-28 17:13 | 42.30301 | 2.73349 | 21631 ft | 283 kts | 206° |
| 2026-04-28 17:13 | 42.28503 | 2.72407 | 21276 ft | 282 kts | 188° |
| 2026-04-28 17:13 | 42.26561 | 2.72115 | 20940 ft | 280 kts | 192° |
| 2026-04-28 17:13 | 42.24820 | 2.71034 | 20574 ft | 277 kts | 218° |
| 2026-04-28 17:14 | 42.23345 | 2.69386 | 20265 ft | 275 kts | 220° |
| 2026-04-28 17:14 | 42.21872 | 2.67751 | 19955 ft | 273 kts | 218° |
| 2026-04-28 17:14 | 42.20367 | 2.66207 | 19647 ft | 271 kts | 216° |
| 2026-04-28 17:14 | 42.18845 | 2.64737 | 19349 ft | 268 kts | 215° |
| 2026-04-28 17:15 | 42.17316 | 2.63315 | 19043 ft | 266 kts | 214° |
| 2026-04-28 17:15 | 42.15789 | 2.61928 | 18764 ft | 264 kts | 214° |
| 2026-04-28 17:15 | 42.14269 | 2.60564 | 18475 ft | 261 kts | 213° |
| 2026-04-28 17:15 | 42.12779 | 2.59238 | 18182 ft | 259 kts | 213° |
| 2026-04-28 17:16 | 42.11286 | 2.57913 | 17900 ft | 256 kts | 213° |
| 2026-04-28 17:16 | 42.09803 | 2.56602 | 17623 ft | 253 kts | 213° |
| 2026-04-28 17:16 | 42.08339 | 2.55310 | 17354 ft | 251 kts | 213° |
| 2026-04-28 17:16 | 42.06888 | 2.54031 | 17077 ft | 248 kts | 213° |
| 2026-04-28 17:17 | 42.05456 | 2.52769 | 16804 ft | 245 kts | 213° |
| 2026-04-28 17:17 | 42.04033 | 2.51516 | 16527 ft | 242 kts | 213° |
| 2026-04-28 17:17 | 42.02631 | 2.50282 | 16263 ft | 240 kts | 213° |
| 2026-04-28 17:17 | 42.01243 | 2.49062 | 15998 ft | 237 kts | 213° |
| 2026-04-28 17:18 | 41.99869 | 2.47855 | 15729 ft | 234 kts | 213° |
| 2026-04-28 17:18 | 41.98530 | 2.46679 | 15461 ft | 232 kts | 213° |
| 2026-04-28 17:18 | 41.97185 | 2.45498 | 15175 ft | 230 kts | 213° |
| 2026-04-28 17:18 | 41.95849 | 2.44326 | 14895 ft | 229 kts | 213° |
| 2026-04-28 17:19 | 41.94519 | 2.43160 | 14602 ft | 228 kts | 213° |
| 2026-04-28 17:19 | 41.93198 | 2.42002 | 14314 ft | 226 kts | 213° |
| 2026-04-28 17:19 | 41.91881 | 2.40848 | 14023 ft | 225 kts | 213° |
| 2026-04-28 17:19 | 41.90569 | 2.39699 | 13737 ft | 224 kts | 213° |
| 2026-04-28 17:20 | 41.89266 | 2.38558 | 13443 ft | 223 kts | 214° |
| 2026-04-28 17:20 | 41.88457 | 2.37719 | 13245 ft | 222 kts | 223° |
| 2026-04-28 17:20 | 41.86995 | 2.35665 | 13010 ft | 236 kts | 228° |
| 2026-04-28 17:20 | 41.85903 | 2.34013 | 12997 ft | 242 kts | 229° |
| 2026-04-28 17:21 | 41.84786 | 2.32316 | 13000 ft | 244 kts | 228° |
| 2026-04-28 17:21 | 41.83660 | 2.30612 | 12999 ft | 244 kts | 228° |
| 2026-04-28 17:21 | 41.82537 | 2.28917 | 13001 ft | 244 kts | 228° |
| 2026-04-28 17:22 | 41.80283 | 2.25526 | 12977 ft | 244 kts | 228° |
| 2026-04-28 17:22 | 41.79136 | 2.23805 | 12494 ft | 253 kts | 228° |
| 2026-04-28 17:22 | 41.77935 | 2.22002 | 11840 ft | 266 kts | 228° |
| 2026-04-28 17:23 | 41.75354 | 2.18137 | 10367 ft | 290 kts | 228° |
| 2026-04-28 17:23 | 41.74000 | 2.16111 | 9551 ft | 302 kts | 228° |
| 2026-04-28 17:23 | 41.72573 | 2.13978 | 8714 ft | 311 kts | 228° |
| 2026-04-28 17:23 | 41.71131 | 2.11823 | 8193 ft | 308 kts | 228° |
| 2026-04-28 17:24 | 41.69730 | 2.09729 | 8023 ft | 294 kts | 226° |
| 2026-04-28 17:24 | 41.68085 | 2.08313 | 7938 ft | 277 kts | 195° |
| 2026-04-28 17:24 | 41.66217 | 2.08258 | 7778 ft | 265 kts | 169° |
| 2026-04-28 17:24 | 41.64458 | 2.08785 | 7660 ft | 254 kts | 167° |
| 2026-04-28 17:25 | 41.62770 | 2.09269 | 7540 ft | 243 kts | 169° |
| 2026-04-28 17:25 | 41.59589 | 2.09935 | 7274 ft | 226 kts | 173° |
| 2026-04-28 17:25 | 41.58039 | 2.10182 | 7020 ft | 223 kts | 174° |
| 2026-04-28 17:26 | 41.56499 | 2.10410 | 6729 ft | 223 kts | 171° |
| 2026-04-28 17:26 | 41.55029 | 2.11040 | 6436 ft | 223 kts | 151° |
| 2026-04-28 17:26 | 41.53877 | 2.12390 | 6133 ft | 223 kts | 123° |
| 2026-04-28 17:26 | 41.53322 | 2.14287 | 6015 ft | 220 kts | 103° |
| 2026-04-28 17:27 | 41.53105 | 2.16312 | 5999 ft | 222 kts | 94° |
| 2026-04-28 17:27 | 41.53068 | 2.18375 | 6001 ft | 223 kts | 90° |
| 2026-04-28 17:27 | 41.53112 | 2.20446 | 6001 ft | 223 kts | 88° |
| 2026-04-28 17:27 | 41.53174 | 2.22514 | 6002 ft | 223 kts | 88° |
| 2026-04-28 17:28 | 41.53224 | 2.24556 | 6002 ft | 223 kts | 89° |
| 2026-04-28 17:28 | 41.53263 | 2.28696 | 5998 ft | 223 kts | 90° |
| 2026-04-28 17:28 | 41.53259 | 2.30766 | 6005 ft | 223 kts | 91° |
| 2026-04-28 17:29 | 41.53247 | 2.32834 | 6002 ft | 223 kts | 91° |
| 2026-04-28 17:29 | 41.53232 | 2.34906 | 5774 ft | 224 kts | 91° |
| 2026-04-28 17:29 | 41.53215 | 2.36979 | 5512 ft | 222 kts | 91° |
| 2026-04-28 17:30 | 41.53183 | 2.41076 | 4988 ft | 220 kts | 91° |
| 2026-04-28 17:30 | 41.53152 | 2.45112 | 4440 ft | 218 kts | 91° |
| 2026-04-28 17:30 | 41.53137 | 2.47132 | 4158 ft | 217 kts | 91° |
| 2026-04-28 17:31 | 41.53121 | 2.49146 | 3879 ft | 216 kts | 91° |
| 2026-04-28 17:31 | 41.53089 | 2.53143 | 3323 ft | 215 kts | 91° |
| 2026-04-28 17:32 | 41.53057 | 2.57108 | 2773 ft | 213 kts | 91° |
| 2026-04-28 17:32 | 41.53041 | 2.59081 | 2498 ft | 212 kts | 91° |
| 2026-04-28 17:32 | 41.53026 | 2.61009 | 2345 ft | 210 kts | 91° |
| 2026-04-28 17:32 | 41.53010 | 2.62955 | 2329 ft | 210 kts | 91° |
| 2026-04-28 17:33 | 41.52993 | 2.64913 | 2327 ft | 211 kts | 91° |
| 2026-04-28 17:33 | 41.52977 | 2.66871 | 2327 ft | 211 kts | 91° |
| 2026-04-28 17:33 | 41.52961 | 2.68832 | 2327 ft | 211 kts | 91° |
| 2026-04-28 17:33 | 41.52955 | 2.69492 | 2327 ft | 211 kts | 91° |
| 2026-04-28 17:34 | 41.52928 | 2.72748 | 2327 ft | 211 kts | 91° |
| 2026-04-28 17:34 | 41.52911 | 2.74705 | 2327 ft | 211 kts | 91° |
| 2026-04-28 17:34 | 41.52889 | 2.76640 | 2326 ft | 211 kts | 94° |
| 2026-04-28 17:34 | 41.52545 | 2.78522 | 2324 ft | 209 kts | 117° |
| 2026-04-28 17:35 | 41.51635 | 2.79991 | 2329 ft | 207 kts | 148° |
| 2026-04-28 17:35 | 41.50290 | 2.80535 | 2325 ft | 204 kts | 184° |
| 2026-04-28 17:35 | 41.48981 | 2.79911 | 2326 ft | 203 kts | 220° |
| 2026-04-28 17:35 | 41.48184 | 2.78388 | 2333 ft | 204 kts | 248° |
| 2026-04-28 17:36 | 41.47751 | 2.76578 | 2328 ft | 206 kts | 254° |
| 2026-04-28 17:36 | 41.47381 | 2.74731 | 2327 ft | 207 kts | 255° |
| 2026-04-28 17:36 | 41.47007 | 2.72880 | 2327 ft | 207 kts | 254° |
| 2026-04-28 17:36 | 41.46623 | 2.71036 | 2328 ft | 206 kts | 254° |
| 2026-04-28 17:37 | 41.46230 | 2.69196 | 2327 ft | 206 kts | 253° |
| 2026-04-28 17:37 | 41.45833 | 2.67357 | 2329 ft | 206 kts | 253° |
| 2026-04-28 17:37 | 41.45438 | 2.65545 | 2327 ft | 206 kts | 253° |
| 2026-04-28 17:37 | 41.45091 | 2.63692 | 2319 ft | 206 kts | 266° |
| 2026-04-28 17:38 | 41.45053 | 2.61785 | 2329 ft | 206 kts | 269° |
| 2026-04-28 17:38 | 41.45061 | 2.59873 | 2328 ft | 207 kts | 270° |
| 2026-04-28 17:38 | 41.45067 | 2.57955 | 2327 ft | 207 kts | 269° |
| 2026-04-28 17:38 | 41.45076 | 2.56040 | 2327 ft | 207 kts | 269° |
| 2026-04-28 17:39 | 41.44989 | 2.54131 | 2328 ft | 206 kts | 262° |
| 2026-04-28 17:39 | 41.44708 | 2.52259 | 2330 ft | 206 kts | 253° |
| 2026-04-28 17:39 | 41.43638 | 2.48725 | 2334 ft | 206 kts | 245° |
| 2026-04-28 17:40 | 41.43052 | 2.47011 | 2336 ft | 206 kts | 245° |
| 2026-04-28 17:40 | 41.42462 | 2.45273 | 2338 ft | 206 kts | 245° |
| 2026-04-28 17:40 | 41.41876 | 2.43530 | 2335 ft | 206 kts | 245° |
| 2026-04-28 17:40 | 41.41289 | 2.41792 | 2334 ft | 206 kts | 245° |
| 2026-04-28 17:41 | 41.40699 | 2.40058 | 2337 ft | 206 kts | 245° |
| 2026-04-28 17:41 | 41.40307 | 2.38908 | 2334 ft | 206 kts | 245° |
| 2026-04-28 17:41 | 41.39515 | 2.36583 | 2336 ft | 206 kts | 245° |
| 2026-04-28 17:41 | 41.38924 | 2.34850 | 2335 ft | 206 kts | 245° |
| 2026-04-28 17:42 | 41.38533 | 2.33701 | 2338 ft | 206 kts | 245° |
| 2026-04-28 17:42 | 41.37942 | 2.31967 | 2336 ft | 206 kts | 245° |
| 2026-04-28 17:42 | 41.37157 | 2.29671 | 2338 ft | 206 kts | 245° |
| 2026-04-28 17:42 | 41.36566 | 2.27939 | 2338 ft | 206 kts | 245° |
| 2026-04-28 17:43 | 41.35989 | 2.26249 | 2383 ft | 188 kts | 245° |
| 2026-04-28 17:43 | 41.35487 | 2.24776 | 2350 ft | 163 kts | 245° |
| 2026-04-28 17:43 | 41.35185 | 2.23891 | 2220 ft | 154 kts | 245° |
| 2026-04-28 17:43 | 41.34757 | 2.22634 | 2007 ft | 145 kts | 245° |
| 2026-04-28 17:44 | 41.34206 | 2.21017 | 1744 ft | 143 kts | 245° |
| 2026-04-28 17:44 | 41.33795 | 2.19813 | 1556 ft | 143 kts | 245° |
| 2026-04-28 17:44 | 41.33391 | 2.18628 | 1368 ft | 142 kts | 245° |
| 2026-04-28 17:44 | 41.32983 | 2.17432 | 1191 ft | 141 kts | 245° |
| 2026-04-28 17:45 | 41.32580 | 2.16250 | 998 ft | 140 kts | 245° |
| 2026-04-28 17:45 | 41.32178 | 2.15071 | 808 ft | 140 kts | 245° |
| 2026-04-28 17:45 | 41.31774 | 2.13888 | 623 ft | 140 kts | 245° |
| 2026-04-28 17:45 | 41.31372 | 2.12710 | 428 ft | 140 kts | 245° |
| 2026-04-28 17:46 | 41.31106 | 2.11932 | 310 ft | 139 kts | 245° |
| 2026-04-28 17:46 | 41.30707 | 2.10761 | 124 ft | 139 kts | 245° |
| 2026-04-28 17:46 | 41.30315 | 2.09615 | 20 ft | 122 kts | 245° |
| 2026-04-28 17:46 | 41.30080 | 2.08927 | 22 ft | 39 kts | 245° |
| 2026-04-28 17:47 | 41.30046 | 2.08825 | 23 ft | 13 kts | 246° |
| 2026-04-28 17:47 | 41.29977 | 2.08649 | 26 ft | 18 kts | 241° |
| 2026-04-28 17:47 | 41.29911 | 2.08586 | 24 ft | 9 kts | 186° |
| 2026-04-28 17:47 | 41.29888 | 2.08581 | 26 ft | 10 kts | 202° |
| 2026-04-28 17:48 | 41.29856 | 2.08556 | 23 ft | 0 kts | 216° |
| 2026-04-28 17:48 | 41.29849 | 2.08550 | 25 ft | 4 kts | 216° |
| 2026-04-28 17:48 | 41.29831 | 2.08532 | 24 ft | 0 kts | 217° |
| 2026-04-28 17:48 | 41.29830 | 2.08531 | 24 ft | 2 kts | 217° |
| 2026-04-28 17:49 | 41.29803 | 2.08504 | 24 ft | 8 kts | 217° |
| 2026-04-28 17:49 | 41.29742 | 2.08443 | 22 ft | 15 kts | 223° |
| 2026-04-28 17:49 | 41.29677 | 2.08307 | 20 ft | 19 kts | 245° |
| 2026-04-28 17:49 | 41.29584 | 2.08250 | 20 ft | 18 kts | 158° |
| 2026-04-28 17:50 | 41.29469 | 2.08323 | 18 ft | 19 kts | 155° |
| 2026-04-28 17:50 | 41.29340 | 2.08400 | 18 ft | 23 kts | 157° |
| 2026-04-28 17:50 | 41.29207 | 2.08448 | 17 ft | 18 kts | 191° |
| 2026-04-28 17:50 | 41.29094 | 2.08401 | 21 ft | 15 kts | 199° |
| 2026-04-28 17:51 | 41.29034 | 2.08316 | 20 ft | 9 kts | 247° |
| 2026-04-28 17:51 | 41.29029 | 2.08300 | 22 ft | 0 kts | 247° |
| 2026-04-28 17:51 | 41.29027 | 2.08295 | 21 ft | 0 kts | 247° |
| 2026-04-28 17:53 | 41.29022 | 2.08267 | 20 ft | 6 kts | 258° |
| 2026-04-28 17:53 | 41.29024 | 2.08198 | 20 ft | 9 kts | 294° |
| 2026-04-28 17:53 | 41.29069 | 2.08163 | 20 ft | 1 kts | 335° |
| 2026-04-28 17:53 | 41.29072 | 2.08161 | 20 ft | 1 kts | 340° |
| 2026-04-28 17:54 | 41.29078 | 2.08159 | 20 ft | 0 kts | 337° |
| 2026-04-28 17:54 | 41.29078 | 2.08158 | 20 ft | 0 kts | 336° |